Time;durP1;ratioP1;P1;durP2;ratioP2;P2;SDS_P1;SDS_P2;PMS_P1;PMS_P2;Temp;Humidity;BMP_temperature;BMP_pressure;BME280_temperature;BME280_humidity;BME280_pressure;Samples;Min_cycle;Max_cycle;Signal;HPM_P1;HPM_P2
2023/07/11 00:02:24;;;;;;;5.75;4.00;;;20.10;99.90;;;;;;4963069;29;20039;-77
2023/07/11 00:04:49;;;;;;;6.88;3.47;;;20.00;99.90;;;;;;4946749;29;20200;-77
2023/07/11 00:07:15;;;;;;;8.35;3.25;;;20.10;99.90;;;;;;4947266;29;20039;-77
2023/07/11 00:09:42;;;;;;;9.73;3.90;;;20.10;99.90;;;;;;4964265;29;20046;-77
2023/07/11 00:12:08;;;;;;;8.95;4.65;;;20.00;99.90;;;;;;4964408;29;20124;-78
2023/07/11 00:14:36;;;;;;;8.00;4.32;;;20.00;99.90;;;;;;4947272;29;20350;-79
2023/07/11 00:17:03;;;;;;;8.38;4.28;;;20.00;99.90;;;;;;4940698;29;20031;-79
2023/07/11 00:19:31;;;;;;;13.75;4.55;;;20.00;99.90;;;;;;4944598;29;20311;-77
2023/07/11 00:21:57;;;;;;;8.85;3.58;;;20.00;99.90;;;;;;4946908;29;20070;-78
2023/07/11 00:24:22;;;;;;;4.32;3.45;;;19.90;99.90;;;;;;4961000;29;20031;-77
2023/07/11 00:26:48;;;;;;;4.22;2.78;;;20.00;99.90;;;;;;4945033;29;20067;-77
2023/07/11 00:29:16;;;;;;;3.63;2.92;;;19.90;99.90;;;;;;4961857;29;20023;-77
2023/07/11 00:31:42;;;;;;;6.57;3.75;;;19.90;99.90;;;;;;4943777;29;20045;-77
2023/07/11 00:34:07;;;;;;;4.45;3.85;;;19.80;99.90;;;;;;4944322;29;20338;-77
2023/07/11 00:36:33;;;;;;;6.60;4.60;;;19.80;99.90;;;;;;4945440;29;20330;-79
2023/07/11 00:38:58;;;;;;;3.42;3.05;;;19.60;99.90;;;;;;4955478;29;20371;-78
2023/07/11 00:41:24;;;;;;;8.98;4.28;;;19.60;99.90;;;;;;4942207;29;20039;-77
2023/07/11 00:43:50;;;;;;;4.22;3.40;;;19.60;99.90;;;;;;4946619;29;20019;-78
2023/07/11 00:46:19;;;;;;;4.93;4.32;;;19.60;99.90;;;;;;4963691;29;20035;-78
2023/07/11 00:48:48;;;;;;;;;;;19.60;99.90;;;;;;4964456;29;20019;-78
2023/07/11 00:51:18;;;;;;;5.65;3.70;;;19.60;99.90;;;;;;4963849;29;19985;-78
2023/07/11 00:53:44;;;;;;;21.33;4.10;;;19.60;99.90;;;;;;4963964;29;20027;-78
2023/07/11 00:56:15;;;;;;;4.18;3.78;;;19.50;99.90;;;;;;4947360;29;20054;-77
2023/07/11 00:58:43;;;;;;;4.68;3.95;;;19.50;99.90;;;;;;4946532;29;20054;-78
2023/07/11 01:01:10;;;;;;;4.85;3.80;;;19.50;99.90;;;;;;4962734;28;20065;-78
2023/07/11 01:03:36;;;;;;;6.40;3.75;;;19.50;99.90;;;;;;4962948;29;20027;-77
2023/07/11 01:06:02;;;;;;;4.63;3.75;;;19.50;99.90;;;;;;4944130;29;20090;-77
2023/07/11 01:08:27;;;;;;;8.82;4.13;;;19.40;99.90;;;;;;4942994;29;20058;-78
2023/07/11 01:10:53;;;;;;;4.35;3.65;;;19.40;99.90;;;;;;4955165;29;20102;-78
2023/07/11 01:13:19;;;;;;;6.55;3.85;;;19.40;99.90;;;;;;4935989;29;20031;-78
2023/07/11 01:15:44;;;;;;;4.20;3.75;;;19.30;99.90;;;;;;4953114;29;20031;-77
2023/07/11 01:18:10;;;;;;;5.15;3.75;;;19.30;99.90;;;;;;4951675;29;20391;-77
2023/07/11 01:20:36;;;;;;;7.43;3.90;;;19.30;99.90;;;;;;4953347;29;20043;-78
2023/07/11 01:23:02;;;;;;;5.15;3.13;;;19.20;99.90;;;;;;4961551;29;20323;-79
2023/07/11 01:25:28;;;;;;;6.22;4.43;;;19.20;99.90;;;;;;4944343;29;20023;-77
2023/07/11 01:27:53;;;;;;;6.63;3.80;;;19.10;99.90;;;;;;4941628;29;20047;-78
2023/07/11 01:30:21;;;;;;;10.13;4.07;;;19.00;99.90;;;;;;4962105;29;20327;-78
2023/07/11 01:32:47;;;;;;;5.82;3.60;;;19.10;99.90;;;;;;4945331;29;20288;-79
2023/07/11 01:35:14;;;;;;;5.38;3.90;;;19.10;99.90;;;;;;4945687;29;20107;-77
2023/07/11 01:37:40;;;;;;;11.18;4.68;;;19.10;99.90;;;;;;4962937;29;20307;-78
2023/07/11 01:40:07;;;;;;;14.10;4.50;;;19.10;99.90;;;;;;4945397;29;20042;-78
2023/07/11 01:42:34;;;;;;;11.77;4.78;;;19.10;99.90;;;;;;4945651;29;20049;-79
2023/07/11 01:44:59;;;;;;;5.53;4.32;;;19.00;99.90;;;;;;4945508;29;20027;-79
2023/07/11 01:47:25;;;;;;;3.90;3.55;;;18.90;99.90;;;;;;4962651;29;20023;-79
2023/07/11 01:49:51;;;;;;;5.00;4.22;;;18.80;99.90;;;;;;4945760;29;20104;-77
2023/07/11 01:52:20;;;;;;;7.18;3.92;;;18.80;99.90;;;;;;4961048;29;20031;-79
2023/07/11 01:54:46;;;;;;;4.50;3.42;;;18.80;99.90;;;;;;4942074;29;20337;-78
2023/07/11 01:57:13;;;;;;;11.10;4.63;;;18.80;99.90;;;;;;4962468;29;20058;-77
2023/07/11 01:59:39;;;;;;;7.78;4.10;;;18.70;99.90;;;;;;4958721;29;20046;-78
2023/07/11 02:02:06;;;;;;;12.43;5.30;;;18.70;99.90;;;;;;4961964;29;20031;-77
2023/07/11 02:04:33;;;;;;;10.02;4.50;;;18.70;99.90;;;;;;4947835;29;20034;-78
2023/07/11 02:06:59;;;;;;;10.25;4.43;;;18.70;99.90;;;;;;4966876;29;20055;-79
2023/07/11 02:09:25;;;;;;;7.07;3.47;;;18.70;99.90;;;;;;4936146;29;20023;-77
2023/07/11 02:11:50;;;;;;;5.13;4.10;;;18.70;99.90;;;;;;4934477;29;20024;-79
2023/07/11 02:14:19;;;;;;;5.10;3.92;;;18.60;99.90;;;;;;4957939;29;20042;-78
2023/07/11 02:16:46;;;;;;;3.50;3.20;;;18.60;99.90;;;;;;4952819;29;20066;-77
2023/07/11 02:19:13;;;;;;;4.93;4.00;;;18.70;99.90;;;;;;4960657;29;20275;-77
2023/07/11 02:21:39;;;;;;;6.90;4.15;;;18.70;99.90;;;;;;4937147;29;20055;-77
2023/07/11 02:24:07;;;;;;;7.00;4.10;;;18.60;99.90;;;;;;4952194;29;20034;-77
2023/07/11 02:26:33;;;;;;;5.00;3.85;;;18.60;99.90;;;;;;4952733;29;20035;-78
2023/07/11 02:28:59;;;;;;;13.70;3.78;;;18.60;99.90;;;;;;4937314;29;20082;-78
2023/07/11 02:31:24;;;;;;;7.10;4.40;;;18.60;99.90;;;;;;4937557;29;20036;-78
2023/07/11 02:33:50;;;;;;;7.65;4.43;;;18.50;99.90;;;;;;4944223;29;20203;-77
2023/07/11 02:36:15;;;;;;;5.55;3.47;;;18.50;99.90;;;;;;4944192;29;20062;-77
2023/07/11 02:38:43;;;;;;;5.80;4.15;;;18.50;99.90;;;;;;4961532;29;20034;-77
2023/07/11 02:41:08;;;;;;;3.42;3.10;;;18.50;99.90;;;;;;4961784;29;20113;-77
2023/07/11 02:43:34;;;;;;;8.75;4.07;;;18.40;99.90;;;;;;4944703;29;20187;-78
2023/07/11 02:46:00;;;;;;;10.90;5.40;;;18.50;99.90;;;;;;4952437;29;20030;-78
2023/07/11 02:48:26;;;;;;;6.93;4.60;;;18.40;99.90;;;;;;4939524;29;20063;-77
2023/07/11 02:50:52;;;;;;;5.45;3.83;;;18.40;99.90;;;;;;4937490;29;20023;-78
2023/07/11 02:53:18;;;;;;;8.25;5.10;;;18.30;99.90;;;;;;4936495;29;20082;-77
2023/07/11 02:55:44;;;;;;;8.38;3.83;;;18.30;99.90;;;;;;4954985;29;20112;-78
2023/07/11 02:58:10;;;;;;;5.80;4.57;;;18.30;99.90;;;;;;4942248;29;20319;-78
2023/07/11 03:00:36;;;;;;;5.47;4.25;;;18.30;99.90;;;;;;4960191;29;20111;-78
2023/07/11 03:03:03;;;;;;;4.55;4.07;;;18.30;99.90;;;;;;4960783;29;20042;-78
2023/07/11 03:05:28;;;;;;;4.30;3.90;;;18.20;99.90;;;;;;4924635;29;20380;-78
2023/07/11 03:07:54;;;;;;;3.53;3.17;;;18.10;99.90;;;;;;4954475;29;20035;-79
2023/07/11 03:10:20;;;;;;;3.97;3.15;;;18.00;99.90;;;;;;4959814;28;20375;-77
2023/07/11 03:12:45;;;;;;;3.75;3.38;;;18.00;99.90;;;;;;4952320;29;20015;-78
2023/07/11 03:15:11;;;;;;;7.28;4.47;;;18.00;99.90;;;;;;4952970;28;20054;-79
2023/07/11 03:17:37;;;;;;;9.52;4.72;;;18.10;99.90;;;;;;4933721;29;20023;-79
2023/07/11 03:20:02;;;;;;;12.23;4.63;;;18.10;99.90;;;;;;4934368;29;20231;-78
2023/07/11 03:22:29;;;;;;;8.32;4.93;;;18.10;99.90;;;;;;4936526;28;20043;-77
2023/07/11 03:24:54;;;;;;;6.90;4.18;;;18.10;99.90;;;;;;4945768;28;20138;-78
2023/07/11 03:27:20;;;;;;;5.72;4.20;;;18.10;99.90;;;;;;4953942;28;20023;-78
2023/07/11 03:29:46;;;;;;;7.60;4.55;;;18.00;99.90;;;;;;4952624;28;20031;-78
2023/07/11 03:32:11;;;;;;;10.13;4.57;;;18.00;99.90;;;;;;4954076;28;20031;-77
2023/07/11 03:34:38;;;;;;;15.27;5.18;;;18.00;99.90;;;;;;4948783;29;20104;-78
2023/07/11 03:37:03;;;;;;;4.22;3.55;;;18.10;99.90;;;;;;4962278;28;20081;-79
2023/07/11 03:39:29;;;;;;;7.32;4.10;;;18.10;99.90;;;;;;4951762;28;20023;-79
2023/07/11 03:41:55;;;;;;;6.10;4.57;;;18.10;99.90;;;;;;4970026;28;20045;-77
2023/07/11 03:44:20;;;;;;;7.50;4.90;;;18.10;99.90;;;;;;4973362;28;20089;-78
2023/07/11 03:46:46;;;;;;;8.20;4.38;;;18.10;99.90;;;;;;4972259;28;20026;-79
2023/07/11 03:49:12;;;;;;;12.05;4.85;;;18.10;99.90;;;;;;4952669;28;20451;-78
2023/07/11 03:51:37;;;;;;;6.03;4.43;;;18.10;99.90;;;;;;4953490;28;20472;-77
2023/07/11 03:54:03;;;;;;;9.57;3.95;;;18.10;99.90;;;;;;4971483;28;20247;-79
2023/07/11 03:56:29;;;;;;;9.20;4.57;;;18.10;99.90;;;;;;4971907;28;20043;-77
2023/07/11 03:58:54;;;;;;;8.88;4.35;;;18.00;99.90;;;;;;4968693;28;20023;-78
2023/07/11 04:01:20;;;;;;;8.15;5.20;;;18.10;99.90;;;;;;4952005;29;20539;-77
2023/07/11 04:03:46;;;;;;;6.25;4.38;;;18.10;99.90;;;;;;4959965;29;20095;-77
2023/07/11 04:06:12;;;;;;;11.60;4.85;;;18.20;99.90;;;;;;4959977;28;20027;-78
2023/07/11 04:08:40;;;;;;;12.20;5.68;;;18.30;99.90;;;;;;4950693;29;20197;-78
2023/07/11 04:11:06;;;;;;;8.68;4.88;;;18.30;99.90;;;;;;4937957;29;20032;-80
2023/07/11 04:13:32;;;;;;;16.90;7.10;;;18.40;99.90;;;;;;4954027;29;20031;-82
2023/07/11 04:15:58;;;;;;;16.13;7.38;;;18.40;99.90;;;;;;4939259;29;20033;-79
2023/07/11 04:18:24;;;;;;;6.47;5.85;;;18.50;99.90;;;;;;4942825;29;20038;-80
2023/07/11 04:20:49;;;;;;;19.67;6.25;;;18.50;99.90;;;;;;4942646;29;20058;-77
2023/07/11 04:23:15;;;;;;;8.80;5.80;;;18.50;99.90;;;;;;4960245;29;20066;-77
2023/07/11 04:25:41;;;;;;;5.75;5.00;;;18.50;99.90;;;;;;4959939;29;20015;-78
2023/07/11 04:28:07;;;;;;;8.52;5.97;;;18.60;99.90;;;;;;4959802;29;20046;-80
2023/07/11 04:30:33;;;;;;;14.38;6.15;;;18.70;99.90;;;;;;4942026;29;20223;-77
2023/07/11 04:32:59;;;;;;;8.63;6.18;;;18.80;99.90;;;;;;4953329;29;20038;-78
2023/07/11 04:35:24;;;;;;;6.15;5.03;;;18.80;99.90;;;;;;4959163;28;20038;-70
2023/07/11 04:37:50;;;;;;;13.13;5.68;;;18.90;99.90;;;;;;4963642;29;20302;-73
2023/07/11 04:40:16;;;;;;;7.55;5.15;;;18.90;99.90;;;;;;4964318;29;20042;-73
2023/07/11 04:42:42;;;;;;;10.05;6.20;;;19.10;99.90;;;;;;4963880;29;20047;-73
2023/07/11 04:45:09;;;;;;;13.23;6.40;;;19.10;99.90;;;;;;4968879;29;20047;-69
2023/07/11 04:47:35;;;;;;;17.10;5.75;;;19.20;99.90;;;;;;4973824;29;20031;-72
2023/07/11 04:50:01;;;;;;;5.68;4.32;;;19.30;99.90;;;;;;4957393;29;20035;-75
2023/07/11 04:52:27;;;;;;;8.98;4.30;;;19.50;99.90;;;;;;4956086;29;20034;-71
2023/07/11 04:54:52;;;;;;;8.63;5.45;;;19.60;99.90;;;;;;4956061;29;20383;-72
2023/07/11 04:57:18;;;;;;;7.07;5.35;;;20.00;99.90;;;;;;4953071;29;20106;-70
2023/07/11 04:59:44;;;;;;;8.82;4.97;;;20.40;99.90;;;;;;4952693;29;20023;-71
2023/07/11 05:02:10;;;;;;;9.77;5.40;;;20.60;99.90;;;;;;4952804;29;20031;-71
2023/07/11 05:04:38;;;;;;;6.95;4.82;;;20.80;99.90;;;;;;4952575;28;20472;-72
2023/07/11 05:07:04;;;;;;;4.57;3.85;;;21.10;99.90;;;;;;4954554;29;20050;-71
2023/07/11 05:09:30;;;;;;;5.90;4.70;;;21.10;99.90;;;;;;4953801;28;20035;-71
2023/07/11 05:11:56;;;;;;;8.60;4.30;;;21.20;99.90;;;;;;4954374;29;20042;-72
2023/07/11 05:14:22;;;;;;;18.92;5.50;;;21.10;99.90;;;;;;4957903;28;20027;-71
2023/07/11 05:16:48;;;;;;;9.93;5.35;;;21.00;99.90;;;;;;4963531;28;20027;-74
2023/07/11 05:19:14;;;;;;;9.25;4.55;;;21.10;99.90;;;;;;4954852;29;20138;-70
2023/07/11 05:21:39;;;;;;;6.55;4.63;;;21.10;99.90;;;;;;4957414;28;20307;-71
2023/07/11 05:24:05;;;;;;;13.63;5.60;;;21.10;99.90;;;;;;4960678;29;20023;-73
2023/07/11 05:26:32;;;;;;;5.85;5.03;;;21.20;99.90;;;;;;4958254;29;20020;-71
2023/07/11 05:28:57;;;;;;;11.52;5.15;;;21.30;99.90;;;;;;4962256;29;20054;-72
2023/07/11 05:31:23;;;;;;;8.10;5.50;;;21.50;99.90;;;;;;4950999;29;20427;-71
2023/07/11 05:33:52;;;;;;;10.88;5.97;;;21.60;99.90;;;;;;4960443;29;20038;-71
2023/07/11 05:38:53;;;;;;;8.57;6.43;;;21.90;99.90;;;;;;4960014;29;20243;-70
2023/07/11 05:41:19;;;;;;;9.23;5.60;;;22.30;99.90;;;;;;4960283;29;20031;-70
2023/07/11 05:43:45;;;;;;;10.02;5.38;;;22.50;99.90;;;;;;4960235;29;20023;-72
2023/07/11 05:46:11;;;;;;;11.70;5.97;;;22.50;99.90;;;;;;4951674;28;20034;-70
2023/07/11 05:48:37;;;;;;;10.52;5.72;;;22.60;99.90;;;;;;4956441;29;20061;-70
2023/07/11 05:51:09;;;;;;;8.98;5.25;;;22.80;99.90;;;;;;4954054;28;20031;-70
2023/07/11 05:53:36;;;;;;;9.85;6.13;;;23.20;99.90;;;;;;4956103;29;20054;-70
2023/07/11 05:56:02;;;;;;;7.10;5.22;;;23.50;99.90;;;;;;4939093;29;20031;-72
2023/07/11 05:58:29;;;;;;;6.90;5.07;;;23.70;99.90;;;;;;4954019;29;20026;-71
2023/07/11 06:00:56;;;;;;;7.40;4.43;;;23.60;99.90;;;;;;4951350;29;20031;-73
2023/07/11 06:03:24;;;;;;;8.57;4.90;;;23.40;99.90;;;;;;4952096;29;20034;-74
2023/07/11 06:05:50;;;;;;;8.50;5.65;;;23.30;99.90;;;;;;4943459;28;20399;-70
2023/07/11 06:08:16;;;;;;;7.75;5.22;;;23.40;99.90;;;;;;4971192;28;20295;-73
2023/07/11 06:10:43;;;;;;;8.43;5.10;;;23.40;99.90;;;;;;4971279;28;20113;-69
2023/07/11 06:13:14;;;;;;;7.55;4.63;;;23.50;99.90;;;;;;4954096;28;20057;-76
2023/07/11 06:15:40;;;;;;;7.70;5.00;;;23.80;99.90;;;;;;4970809;28;20035;-80
2023/07/11 06:18:07;;;;;;;6.90;4.22;;;24.20;99.90;;;;;;4954599;28;20027;-79
2023/07/11 06:20:32;;;;;;;6.03;4.57;;;24.50;99.90;;;;;;4981502;28;20050;-80
2023/07/11 06:22:59;;;;;;;7.88;3.90;;;24.60;99.90;;;;;;4964826;28;20162;-80
2023/07/11 06:25:25;;;;;;;6.63;4.63;;;24.70;99.90;;;;;;4955796;29;20026;-79
2023/07/11 06:27:51;;;;;;;7.95;5.15;;;24.70;99.90;;;;;;4960890;29;20326;-80
2023/07/11 06:30:16;;;;;;;5.30;4.13;;;24.80;99.90;;;;;;4945090;29;20035;-80
2023/07/11 06:32:42;;;;;;;6.63;3.88;;;24.90;99.90;;;;;;4961997;29;20330;-79
2023/07/11 06:35:08;;;;;;;6.20;4.32;;;25.00;99.90;;;;;;4944084;29;20042;-81
2023/07/11 06:37:34;;;;;;;10.50;4.50;;;25.30;99.90;;;;;;4944904;29;20023;-79
2023/07/11 06:40:00;;;;;;;6.65;4.75;;;25.70;99.90;;;;;;4953475;29;20031;-79
2023/07/11 06:42:25;;;;;;;6.00;3.95;;;25.80;99.90;;;;;;4951269;29;20559;-80
2023/07/11 06:44:52;;;;;;;9.82;3.67;;;26.00;99.90;;;;;;4951012;29;20122;-80
2023/07/11 06:47:18;;;;;;;5.15;4.28;;;26.70;99.90;;;;;;4933808;29;20039;-79
2023/07/11 06:49:44;;;;;;;5.05;4.32;;;27.40;99.90;;;;;;4933666;29;20074;-80
2023/07/11 06:52:10;;;;;;;7.63;3.70;;;27.80;99.90;;;;;;4933309;29;20232;-80
2023/07/11 06:54:36;;;;;;;9.10;4.45;;;28.30;99.90;;;;;;4933697;29;20024;-79
2023/07/11 06:57:02;;;;;;;7.78;3.97;;;28.90;99.90;;;;;;4950744;29;20392;-80
2023/07/11 06:59:28;;;;;;;7.68;4.35;;;29.30;99.90;;;;;;4950675;28;20094;-78
2023/07/11 07:01:54;;;;;;;7.32;4.28;;;29.40;99.90;;;;;;4964890;28;20054;-79
2023/07/11 07:04:19;;;;;;;4.82;4.07;;;29.30;99.90;;;;;;4952668;28;20200;-78
2023/07/11 07:06:45;;;;;;;4.70;4.20;;;30.20;99.90;;;;;;4952498;28;20035;-78
2023/07/11 07:09:11;;;;;;;5.72;4.28;;;30.10;99.90;;;;;;4970597;28;20030;-80
2023/07/11 07:11:37;;;;;;;8.15;3.63;;;30.30;99.90;;;;;;4952765;28;20056;-78
2023/07/11 07:14:07;;;;;;;4.75;3.20;;;30.10;99.60;;;;;;4939382;29;20118;-79
2023/07/11 07:16:38;;;;;;;5.45;4.25;;;30.10;99.70;;;;;;4931954;28;20464;-78
2023/07/11 07:19:05;;;;;;;3.92;3.33;;;31.10;98.20;;;;;;4932305;29;20035;-79
2023/07/11 07:21:31;;;;;;;3.70;3.35;;;32.10;93.10;;;;;;4929820;29;20082;-80
2023/07/11 07:23:57;;;;;;;4.95;3.58;;;32.30;91.40;;;;;;4934340;29;20071;-79
2023/07/11 07:26:22;;;;;;;6.15;4.28;;;32.80;90.20;;;;;;4933970;29;20023;-78
2023/07/11 07:28:48;;;;;;;8.15;3.10;;;32.80;87.50;;;;;;4933379;29;20042;-79
2023/07/11 07:31:14;;;;;;;8.90;3.78;;;31.90;88.20;;;;;;4957559;29;20010;-79
2023/07/11 07:33:40;;;;;;;8.15;4.35;;;31.70;89.70;;;;;;4962570;28;20224;-80
2023/07/11 07:36:08;;;;;;;7.03;3.47;;;32.00;89.80;;;;;;4924245;29;20447;-76
2023/07/11 07:38:34;;;;;;;5.05;3.78;;;32.30;89.70;;;;;;4933086;29;20053;-75
2023/07/11 07:41:05;;;;;;;5.38;3.75;;;32.90;87.90;;;;;;4954409;28;20019;-78
2023/07/11 07:43:31;;;;;;;8.13;3.53;;;33.50;85.60;;;;;;4934982;28;20019;-75
2023/07/11 07:45:59;;;;;;;5.70;4.28;;;34.50;82.10;;;;;;4967582;28;20030;-74
2023/07/11 07:48:25;;;;;;;7.30;4.07;;;34.40;80.50;;;;;;4942309;29;20031;-74
2023/07/11 07:50:51;;;;;;;4.95;3.88;;;33.90;81.50;;;;;;4953704;28;20031;-75
2023/07/11 07:53:18;;;;;;;4.75;4.10;;;34.20;81.30;;;;;;4969197;28;20093;-76
2023/07/11 07:55:44;;;;;;;6.25;4.10;;;34.50;82.40;;;;;;4968609;28;20024;-74
2023/07/11 07:58:10;;;;;;;6.90;3.70;;;34.90;79.60;;;;;;4967748;28;20042;-75
2023/07/11 08:00:36;;;;;;;7.00;3.85;;;35.30;78.60;;;;;;4932714;28;20478;-75
2023/07/11 08:03:03;;;;;;;4.35;3.95;;;35.70;77.00;;;;;;4942081;29;20500;-74
2023/07/11 08:05:30;;;;;;;7.20;3.83;;;35.80;75.20;;;;;;4930639;28;20087;-74
2023/07/11 08:07:56;;;;;;;6.30;4.15;;;36.00;74.80;;;;;;4968751;28;20302;-75
2023/07/11 08:10:22;;;;;;;7.30;4.93;;;36.30;73.80;;;;;;4969053;28;20281;-75
2023/07/11 08:12:47;;;;;;;3.75;3.45;;;36.60;71.70;;;;;;4971631;28;20471;-75
2023/07/11 08:15:13;;;;;;;5.50;4.35;;;36.70;71.70;;;;;;4967513;28;20189;-76
2023/07/11 08:17:42;;;;;;;8.93;3.90;;;37.00;72.40;;;;;;4934184;29;20331;-75
2023/07/11 08:20:08;;;;;;;7.35;3.58;;;36.70;73.40;;;;;;4952886;29;20046;-73
2023/07/11 08:22:35;;;;;;;11.82;5.18;;;36.70;71.20;;;;;;4968361;28;20039;-73
2023/07/11 08:25:01;;;;;;;6.72;4.63;;;36.50;71.30;;;;;;4972535;28;20371;-74
2023/07/11 08:27:26;;;;;;;10.65;4.78;;;36.40;72.10;;;;;;4953707;28;20340;-75
2023/07/11 08:29:52;;;;;;;8.77;4.35;;;36.10;72.10;;;;;;4972719;28;20027;-73
2023/07/11 08:32:18;;;;;;;4.00;3.63;;;36.60;73.40;;;;;;4972431;28;20045;-73
2023/07/11 08:34:44;;;;;;;6.18;3.75;;;36.00;73.00;;;;;;4955004;28;20536;-75
2023/07/11 08:37:13;;;;;;;4.53;3.90;;;36.20;72.20;;;;;;4972281;28;20102;-74
2023/07/11 08:39:39;;;;;;;4.57;3.85;;;36.10;71.70;;;;;;4973013;28;20027;-75
2023/07/11 08:42:31;;;;;;;5.00;3.53;;;36.80;71.60;;;;;;4972719;28;20062;-74
2023/07/11 08:45:35;;;;;;;5.50;4.05;;;37.00;70.10;;;;;;4961171;28;20186;-76
2023/07/11 08:48:13;;;;;;;5.13;3.78;;;37.00;68.10;;;;;;4942157;28;20094;-73
2023/07/11 08:51:10;;;;;;;4.53;3.85;;;36.20;69.80;;;;;;4972061;28;20023;-75
2023/07/11 08:53:45;;;;;;;6.65;4.05;;;36.40;69.90;;;;;;4972268;28;20034;-75
2023/07/11 08:56:36;;;;;;;6.35;4.35;;;36.70;71.00;;;;;;4972560;28;20019;-76
2023/07/11 08:59:07;;;;;;;6.97;4.00;;;36.40;69.50;;;;;;4964415;28;20027;-75
2023/07/11 09:01:59;;;;;;;4.80;3.55;;;36.70;69.50;;;;;;4935608;29;20078;-73
2023/07/11 09:04:26;;;;;;;6.68;4.18;;;36.80;69.00;;;;;;4935155;29;20027;-74
2023/07/11 09:06:56;;;;;;;4.80;3.90;;;35.90;68.50;;;;;;4935467;29;20054;-73
2023/07/11 09:09:23;;;;;;;3.75;3.30;;;35.80;70.20;;;;;;4952971;29;20022;-75
2023/07/11 09:12:05;;;;;;;8.73;4.38;;;36.00;69.10;;;;;;4953040;29;20019;-75
2023/07/11 09:14:56;;;;;;;5.28;4.25;;;35.70;71.40;;;;;;4952851;29;20020;-74
2023/07/11 09:18:00;;;;;;;5.50;3.92;;;36.00;69.70;;;;;;4952944;29;20028;-74
2023/07/11 09:20:44;;;;;;;7.43;3.97;;;36.20;69.20;;;;;;4952381;28;20066;-73
2023/07/11 09:23:18;;;;;;;3.70;3.40;;;36.40;67.80;;;;;;4952475;29;20036;-73
2023/07/11 09:25:46;;;;;;;4.90;4.28;;;36.70;68.30;;;;;;4952616;29;20130;-73
2023/07/11 09:28:27;;;;;;;8.32;4.15;;;36.80;68.30;;;;;;4952328;29;20028;-73
2023/07/11 09:30:58;;;;;;;4.13;3.83;;;36.70;67.70;;;;;;4952782;29;20027;-78
2023/07/11 09:33:30;;;;;;;4.35;3.95;;;36.10;70.80;;;;;;4952563;29;20026;-76
2023/07/11 09:35:57;;;;;;;8.20;4.07;;;35.60;69.90;;;;;;4937489;29;20051;-77
2023/07/11 09:39:09;;;;;;;9.05;4.78;;;35.70;69.40;;;;;;4936755;29;20059;-77
2023/07/11 09:42:03;;;;;;;5.75;3.90;;;35.70;68.90;;;;;;4958975;28;20114;-80
2023/07/11 09:44:29;;;;;;;13.55;4.60;;;35.60;68.50;;;;;;4960253;29;20035;-77
2023/07/11 09:46:54;;;;;;;5.28;4.13;;;34.60;70.70;;;;;;4961975;29;20139;-77
2023/07/11 09:49:29;;;;;;;6.25;4.57;;;34.50;70.80;;;;;;4943173;29;20273;-76
2023/07/11 09:51:58;;;;;;;5.70;4.10;;;34.20;69.40;;;;;;4937804;29;20211;-77
2023/07/11 09:54:24;;;;;;;;;;;34.10;70.40;;;;;;4939299;29;20230;-78
2023/07/11 09:56:50;;;;;;;7.07;4.22;;;33.80;71.10;;;;;;4960668;29;19903;-78
2023/07/11 09:59:19;;;;;;;6.03;4.22;;;34.20;70.70;;;;;;4954035;29;20030;-78
2023/07/11 10:01:50;;;;;;;7.18;4.18;;;34.70;71.00;;;;;;4959161;29;20078;-76
2023/07/11 10:04:20;;;;;;;5.82;4.05;;;34.30;72.70;;;;;;4956470;29;20031;-75
2023/07/11 10:07:01;;;;;;;7.38;4.50;;;33.90;71.60;;;;;;4943967;29;20019;-76
2023/07/11 10:09:29;;;;;;;6.28;4.00;;;33.80;73.40;;;;;;4961316;29;20272;-75
2023/07/11 10:12:00;;;;;;;6.25;4.18;;;34.30;70.80;;;;;;4962687;29;20311;-76
2023/07/11 10:14:33;;;;;;;8.50;4.22;;;34.50;69.90;;;;;;4945454;29;20061;-75
2023/07/11 10:17:01;;;;;;;5.93;4.07;;;34.70;70.90;;;;;;4945575;29;20268;-75
2023/07/11 10:19:28;;;;;;;;;;;35.10;69.40;;;;;;4962009;29;20039;-75
2023/07/11 10:21:59;;;;;;;4.00;3.70;;;35.70;68.20;;;;;;4961006;29;19924;-75
2023/07/11 10:24:38;;;;;;;6.88;3.45;;;35.70;66.30;;;;;;4960750;29;20046;-75
2023/07/11 10:27:09;;;;;;;6.03;3.97;;;36.00;65.80;;;;;;4960185;29;20102;-75
2023/07/11 10:29:57;;;;;;;4.63;3.38;;;36.10;67.00;;;;;;4957426;29;20027;-74
2023/07/11 10:32:38;;;;;;;6.77;4.23;;;35.50;67.80;;;;;;4940844;29;20030;-76
2023/07/11 10:35:12;;;;;;;6.35;4.25;;;35.30;67.20;;;;;;4956990;29;20524;-80
2023/07/11 10:37:53;;;;;;;4.57;3.47;;;35.50;68.70;;;;;;4961286;29;20031;-74
2023/07/11 10:40:28;;;;;;;4.20;3.80;;;36.00;66.70;;;;;;4961930;29;20264;-75
2023/07/11 10:43:15;;;;;;;7.53;4.47;;;35.80;68.10;;;;;;4944336;29;20039;-74
2023/07/11 10:45:44;;;;;;;6.80;3.58;;;35.60;71.20;;;;;;4937196;29;20031;-76
2023/07/11 10:48:30;;;;;;;5.95;4.35;;;35.10;67.30;;;;;;4935988;29;20306;-75
2023/07/11 10:51:01;;;;;;;3.90;3.50;;;34.90;68.40;;;;;;4960737;29;20058;-75
2023/07/11 10:53:39;;;;;;;6.35;3.85;;;35.30;68.40;;;;;;4944096;29;20314;-76
2023/07/11 10:56:22;;;;;;;5.00;3.93;;;35.50;67.30;;;;;;4944462;29;20019;-75
2023/07/11 10:58:48;;;;;;;8.23;3.45;;;36.40;69.80;;;;;;4936134;29;20339;-75
2023/07/11 11:01:23;;;;;;;5.65;3.40;;;36.90;68.30;;;;;;4951048;29;20023;-75
2023/07/11 11:03:57;;;;;;;6.45;3.65;;;36.70;65.30;;;;;;4936489;29;20119;-76
2023/07/11 11:06:41;;;;;;;7.65;3.28;;;36.90;67.70;;;;;;4934577;29;20757;-76
2023/07/11 11:09:46;;;;;;;7.13;3.88;;;37.30;65.60;;;;;;4958499;29;20034;-75
2023/07/11 11:12:22;;;;;;;5.18;3.60;;;36.80;66.00;;;;;;4935612;29;20161;-78
2023/07/11 11:15:02;;;;;;;9.27;4.05;;;35.80;67.80;;;;;;4959433;29;20023;-75
2023/07/11 11:17:55;;;;;;;5.32;3.83;;;36.40;67.20;;;;;;4952040;29;20139;-75
2023/07/11 11:20:58;;;;;;;7.65;3.67;;;37.40;67.50;;;;;;4959014;29;20062;-76
2023/07/11 11:23:27;;;;;;;12.68;3.83;;;38.50;65.90;;;;;;4961609;29;20046;-78
2023/07/11 11:26:19;;;;;;;7.43;3.47;;;38.90;62.10;;;;;;4961868;29;20034;-77
2023/07/11 11:29:05;;;;;;;7.65;3.63;;;38.70;62.50;;;;;;4961377;29;20206;-76
2023/07/11 11:31:32;;;;;;;7.28;4.10;;;38.40;62.00;;;;;;4938033;29;20095;-76
2023/07/11 11:34:15;;;;;;;6.65;4.30;;;39.10;62.10;;;;;;4938690;29;20031;-75
2023/07/11 11:36:46;;;;;;;4.90;3.72;;;39.10;60.10;;;;;;4956711;29;20094;-75
2023/07/11 11:39:38;;;;;;;5.63;3.13;;;38.90;60.30;;;;;;4957943;29;20019;-78
2023/07/11 11:42:08;;;;;;;4.18;3.80;;;39.10;60.90;;;;;;4957932;29;20220;-76
2023/07/11 11:44:48;;;;;;;4.95;3.47;;;38.90;60.00;;;;;;4946237;29;20484;-77
2023/07/11 11:47:14;;;;;;;6.65;3.92;;;39.20;61.20;;;;;;4945160;29;20184;-75
2023/07/11 11:49:40;;;;;;;3.58;3.28;;;39.70;60.20;;;;;;4961645;28;20094;-75
2023/07/11 11:52:07;;;;;;;4.65;3.60;;;40.50;59.50;;;;;;4958375;28;20026;-75
2023/07/11 11:54:45;;;;;;;6.28;3.83;;;41.00;58.20;;;;;;4958788;29;20035;-76
2023/07/11 11:57:26;;;;;;;5.10;2.97;;;41.40;58.40;;;;;;4960239;28;20480;-76
2023/07/11 11:59:52;;;;;;;5.85;4.03;;;41.20;58.70;;;;;;4962048;28;20167;-76
2023/07/11 12:02:37;;;;;;;8.68;4.63;;;40.30;58.30;;;;;;4942036;29;20198;-75
2023/07/11 12:05:17;;;;;;;8.65;4.10;;;38.40;60.50;;;;;;4942110;29;20035;-76
2023/07/11 12:07:43;;;;;;;3.55;3.25;;;37.70;62.40;;;;;;4958197;28;20110;-74
2023/07/11 12:10:16;;;;;;;5.05;3.78;;;38.10;63.20;;;;;;4963400;29;20034;-76
2023/07/11 12:12:41;;;;;;;6.00;3.17;;;38.20;61.90;;;;;;4946696;28;20078;-76
2023/07/11 12:15:10;;;;;;;6.43;3.83;;;38.20;61.90;;;;;;4945111;29;20488;-77
2023/07/11 12:17:36;;;;;;;4.63;3.53;;;38.30;62.10;;;;;;4942922;29;20027;-74
2023/07/11 12:20:05;;;;;;;6.20;3.75;;;38.50;62.50;;;;;;4944632;29;20087;-75
2023/07/11 12:22:52;;;;;;;6.18;4.05;;;38.40;61.60;;;;;;4962242;29;20131;-75
2023/07/11 12:25:20;;;;;;;8.48;3.50;;;39.10;60.20;;;;;;4958430;28;20432;-75
2023/07/11 12:27:47;;;;;;;3.78;3.35;;;39.00;60.40;;;;;;4962532;29;20515;-75
2023/07/11 12:30:40;;;;;;;5.60;3.42;;;39.70;61.10;;;;;;4963061;28;20098;-74
2023/07/11 12:33:38;;;;;;;5.45;3.38;;;39.30;59.80;;;;;;4960164;28;20042;-75
2023/07/11 12:36:03;;;;;;;;;;;39.40;59.40;;;;;;4947549;29;20073;-76
2023/07/11 12:38:54;;;;;;;4.68;3.50;;;39.60;59.30;;;;;;4959401;28;19902;-75
2023/07/11 12:41:38;;;;;;;4.15;3.78;;;40.00;58.60;;;;;;4924708;29;20335;-75
2023/07/11 12:44:10;;;;;;;4.10;3.80;;;39.50;59.60;;;;;;4966718;29;20027;-73
2023/07/11 12:46:36;;;;;;;5.75;3.30;;;39.30;59.60;;;;;;4961821;28;20034;-73
2023/07/11 12:49:10;;;;;;;8.63;4.00;;;39.30;59.30;;;;;;4937553;29;20026;-74
2023/07/11 12:51:39;;;;;;;4.18;3.63;;;38.60;60.30;;;;;;4956530;29;20030;-74
2023/07/11 12:54:10;;;;;;;6.07;3.50;;;38.90;61.20;;;;;;4955994;28;20024;-74
2023/07/11 12:56:44;;;;;;;7.97;3.88;;;39.90;62.10;;;;;;4935876;29;20034;-75
2023/07/11 12:59:45;;;;;;;3.67;3.03;;;40.20;60.30;;;;;;4952647;29;20432;-74
2023/07/11 13:02:15;;;;;;;7.20;3.50;;;39.50;59.60;;;;;;4931341;29;20519;-73